Airfield :







YOU CAN JOIN US ON...

 
LOGIN :

Register | Disclaimer

   EN    FR    IT 

 









Legend :    VFR   Marginal VFR   IFR   Intensive IFR   Very Intensive IFR
Visi :
Ceiling :
>= 8 km
>= 3000ft
5 to 8 km
1000 to 3000 ft
1500m to 5 km
500 to 1000 ft
800 to 1500m
200 to 500 ft
< 800m
< 200 ft
Symbols :   Thunderstorms  Fog  Heavy snow  Heavy precipitations  Wind > 20 kt






- Airport Elevation : 408 ft


KMLT - Millinocket Municipal

CURRENT METAR :
  • 051953Z AUTO 30009KT 10SM FEW028 SCT034 01/M05 A2952 RMK AO2 SLP008 T00111050

EXPIRED METARs :
  • 051853Z AUTO VRB04KT 10SM OVC036 01/M03 A2950 RMK AO2 SLP999 T00111033
  • 051753Z AUTO 28004KT 10SM FEW026 OVC043 01/M03 A2949 RMK AO2 SLP996 T00061033 10006 21083 55004

TAF N/A



MET'MAP, your aeronautical weather chart ! - Copyright ORBIFLY December 2007 - Disclaimer

ORBIFLY MET'MAP TEAM :

Programming & Development : Alexandra Zaïnal
Concept & original design : Baudouin d'Aumeries
Assistance for programming : Marc-Olivier Méhu
Technical & hardware support : Manuel Goepfert

Contact : metmap@orbifly.com




SOURCES & CREDITS :

   NOAA